KBLV/BLV METAR and TAF weather

Enter ICAO airport designator
Station Type Date Time Source
KBLV METAR 2021/07/26 12:56 UTC NOAA

KBLV 261256Z AUTO 36005KT 10SM CLR 24/24 A3002 RMK AO2 SLP165 T02380238 $


Station Type Date Time Source
KBLV Decoded METAR 2021/07/26 12:56 UTC NOAA

Belleville, Scott AFB/MidAmerica Airport, IL, United States (KBLV) 38-33N 089-51W
Jul 26, 2021 - 08:56 AM EDT / 2021.07.26 1256 UTC
Wind: from the N (360 degrees) at 6 MPH (5 KT):0
Visibility: 10 mile(s):0
Sky conditions: clear
Temperature: 74.8 F (23.8 C)
Dew Point: 74.8 F (23.8 C)
Relative Humidity: 100%
Pressure (altimeter): 30.02 in. Hg (1016 hPa)
ob: KBLV 261256Z AUTO 36005KT 10SM CLR 24/24 A3002 RMK AO2 SLP165 T02380238
cycle: 13

Station Type Date Time Source
KBLV TAF 2021/07/26 08:06 UTC NOAA

TAF TAF KBLV 260800Z 2608/2714 VRB06KT 9999 SKC QNH2995INS TX32/2620Z TN20/2612Z

Example: see airport list